Portada
METAR-TAF:

METAR-TAF

Aeropuertos :

Dhahran, Arabia Saudita

latitud: 26-16N, longitud: 050-09E, altitud: 26 m

Observación

El informe se hizo hace 27 minutos, a las 04:00 UTC
Viento 6 kt del oeste
Temperatura 13°C
Humedad 72%
Presión 1015 hPa
Visibilidad: 7000 m

METAR: OEDR 280400Z 27006KT 7000 NSC 13/08 Q1015 NOSIG

Hora: 07:27 (04:27 UTC)

Pronóstico

El informe se hizo hace 7 horas y 27 minutos, a las 21:00 UTC
Pronóstico válido del 28 a las 00 UTC al 01 a las 06 UTC
Viento 3 kt con dirección variable
Visibilidad 10 km o más
sin nubes por debajo de 1500 m y sin presencia de cumulonimbus.
Temporalmente
del 28 a las 00 UTC al 28 a las 04 UTC
Visibilidad: 6000 m
Evolucionando progresivamente
del 28 a las 08 UTC al 28 a las 10 UTC
Viento 12 kt del este

TAF: OEDR 272100Z 2800/0106 VRB03KT CAVOK TEMPO 2800/2804 6000 NSC BECMG 2808/2810 09012KT

Observaciones y pronósticos meteorológicos de más de 4000 aeropuertos (mensajes METAR y TAF).

Los puntos amarillos y rojos representan las estaciones disponibles.

Ponga el ratón en el punto deseado para ver el nombre de la estación.

Haga clic para ver las observaciones y los pronósticos meteorológicos.

Para cambiar el mapa : haga clic en los botones verdes con una cruz de color negro para hacer un zoom, en el botón verde con un guión para alejar o en las flechas verdes para mapas adyacentes.


METAR-TAF: